Time;durP1;ratioP1;P1;durP2;ratioP2;P2;SDS_P1;SDS_P2;PMS_P1;PMS_P2;Temp;Humidity;BMP_temperature;BMP_pressure;BME280_temperature;BME280_humidity;BME280_pressure;Samples;Min_cycle;Max_cycle;Signal;HPM_P1;HPM_P2
2021/05/23 00:01:36;;;;;;;16.40;9.27;;;18.00;72.60;;;;;;4974730;28;20026;-67
2021/05/23 00:04:02;;;;;;;17.90;9.90;;;18.00;72.50;;;;;;4991976;28;20034;-68
2021/05/23 00:06:28;;;;;;;33.00;16.90;;;18.00;72.70;;;;;;4974437;28;20037;-68
2021/05/23 00:08:53;;;;;;;24.27;12.75;;;17.90;72.50;;;;;;4990898;28;20033;-68
2021/05/23 00:11:19;;;;;;;18.95;10.70;;;17.90;72.30;;;;;;4991705;28;20402;-68
2021/05/23 00:13:47;;;;;;;16.67;10.35;;;17.90;72.30;;;;;;4991638;28;20046;-68
2021/05/23 00:16:19;;;;;;;24.20;13.10;;;17.90;72.30;;;;;;4991565;28;20072;-68
2021/05/23 00:18:47;;;;;;;57.47;31.38;;;17.90;72.30;;;;;;4991926;28;20034;-69
2021/05/23 00:21:15;;;;;;;27.23;15.68;;;17.90;72.30;;;;;;4991744;28;20026;-68
2021/05/23 00:23:41;;;;;;;20.75;12.50;;;17.90;72.30;;;;;;4991661;28;20033;-68
2021/05/23 00:26:07;;;;;;;22.52;12.80;;;17.90;72.20;;;;;;4991598;28;20474;-68
2021/05/23 00:28:33;;;;;;;21.02;10.93;;;17.90;72.30;;;;;;4974513;28;20041;-68
2021/05/23 00:31:03;;;;;;;19.58;10.70;;;17.90;72.30;;;;;;4991191;28;20037;-68
2021/05/23 00:33:28;;;;;;;19.95;11.38;;;17.90;72.40;;;;;;4980030;28;20046;-69
2021/05/23 00:35:54;;;;;;;17.05;10.18;;;17.90;72.30;;;;;;4991858;28;20571;-68
2021/05/23 00:38:20;;;;;;;19.58;11.02;;;17.80;72.30;;;;;;4991961;28;20421;-68
2021/05/23 00:40:45;;;;;;;17.27;9.75;;;17.80;72.30;;;;;;4991182;28;20030;-68
2021/05/23 00:43:14;;;;;;;16.65;10.05;;;17.90;72.30;;;;;;4974188;28;20030;-69
2021/05/23 00:45:40;;;;;;;17.35;10.05;;;17.80;72.30;;;;;;4973999;28;20019;-68
2021/05/23 00:48:06;;;;;;;17.98;9.45;;;17.80;72.40;;;;;;4974496;28;20165;-69
2021/05/23 00:50:32;;;;;;;17.20;9.70;;;17.90;72.90;;;;;;4991394;28;20026;-68
2021/05/23 00:53:01;;;;;;;17.25;9.65;;;17.90;72.50;;;;;;4991687;28;20379;-68
2021/05/23 00:55:27;;;;;;;17.38;9.18;;;17.80;72.40;;;;;;4991327;28;20567;-68
2021/05/23 00:57:52;;;;;;;16.83;8.88;;;17.80;72.40;;;;;;4991712;28;20062;-69
2021/05/23 01:00:53;;;;;;;15.38;8.75;;;17.80;72.40;;;;;;4991217;28;20397;-69
2021/05/23 01:03:27;;;;;;;15.27;8.38;;;17.80;72.40;;;;;;4991255;28;20058;-69
2021/05/23 01:06:04;;;;;;;15.35;8.57;;;17.80;72.40;;;;;;4973381;28;20026;-69
2021/05/23 01:08:30;;;;;;;16.05;8.52;;;17.80;72.30;;;;;;4981768;28;20105;-68
2021/05/23 01:11:03;;;;;;;15.80;7.72;;;17.80;72.30;;;;;;4991328;28;20109;-68
2021/05/23 01:13:35;;;;;;;15.20;8.60;;;17.80;72.40;;;;;;4990487;28;20038;-68
2021/05/23 01:16:22;;;;;;;13.98;7.78;;;17.80;72.50;;;;;;4973901;28;20405;-69
2021/05/23 01:19:01;;;;;;;13.45;7.65;;;17.80;72.50;;;;;;4973909;28;20375;-68
2021/05/23 01:21:31;;;;;;;14.10;8.38;;;17.80;72.50;;;;;;4988814;28;20022;-69
2021/05/23 01:24:01;;;;;;;14.23;7.38;;;17.80;72.50;;;;;;4971177;28;20022;-68
2021/05/23 01:26:34;;;;;;;12.73;7.20;;;17.80;72.50;;;;;;4973636;28;20118;-69
2021/05/23 01:29:07;;;;;;;15.07;7.40;;;17.80;72.50;;;;;;4988112;28;20042;-69
2021/05/23 01:31:35;;;;;;;15.40;6.88;;;17.80;72.60;;;;;;4991093;28;20461;-70
2021/05/23 01:34:02;;;;;;;11.45;6.50;;;17.80;72.60;;;;;;4991036;28;20355;-68
2021/05/23 01:36:31;;;;;;;10.77;6.40;;;17.80;72.60;;;;;;4991070;28;20030;-69
2021/05/23 01:38:59;;;;;;;12.13;6.47;;;17.80;72.50;;;;;;4973626;28;20449;-69
2021/05/23 01:41:25;;;;;;;12.43;6.53;;;17.80;72.50;;;;;;4991077;28;20038;-68
2021/05/23 01:43:51;;;;;;;12.85;6.95;;;17.80;72.60;;;;;;4993498;28;20026;-68
2021/05/23 01:46:18;;;;;;;12.88;6.88;;;17.70;72.60;;;;;;4994048;28;20070;-70
2021/05/23 01:48:43;;;;;;;12.07;6.32;;;17.70;72.40;;;;;;4994747;28;20038;-68
2021/05/23 01:51:09;;;;;;;12.20;6.45;;;17.70;73.00;;;;;;4976935;28;20401;-69
2021/05/23 01:53:37;;;;;;;13.20;6.28;;;17.70;72.40;;;;;;4976769;28;20035;-69
2021/05/23 01:56:04;;;;;;;10.98;6.07;;;17.70;72.50;;;;;;4976709;28;20076;-71
2021/05/23 01:58:31;;;;;;;12.23;5.90;;;17.70;72.40;;;;;;4994512;28;20502;-68
2021/05/23 02:00:57;;;;;;;12.07;5.85;;;17.70;72.40;;;;;;4994105;28;20393;-68
2021/05/23 02:03:24;;;;;;;9.90;5.47;;;17.70;72.40;;;;;;4994038;28;20053;-67
2021/05/23 02:05:56;;;;;;;15.02;5.55;;;17.70;72.50;;;;;;4993709;28;20030;-69
2021/05/23 02:08:24;;;;;;;10.60;5.20;;;17.70;72.40;;;;;;5003181;28;20025;-69
2021/05/23 02:10:52;;;;;;;11.02;5.70;;;17.70;72.50;;;;;;5004473;28;20393;-68
2021/05/23 02:13:18;;;;;;;10.77;5.82;;;17.70;72.50;;;;;;4999857;28;20445;-69
2021/05/23 02:15:45;;;;;;;8.75;4.70;;;17.70;72.50;;;;;;4978104;28;20037;-68
2021/05/23 02:18:11;;;;;;;10.07;5.10;;;17.70;72.50;;;;;;4993986;28;20026;-69
2021/05/23 02:20:37;;;;;;;9.80;5.43;;;17.70;72.50;;;;;;4992548;28;20038;-68
2021/05/23 02:23:05;;;;;;;9.50;4.88;;;17.70;72.50;;;;;;4993887;28;20398;-68
2021/05/23 02:25:33;;;;;;;11.70;5.72;;;17.70;72.50;;;;;;4993778;28;20023;-68
2021/05/23 02:28:01;;;;;;;10.00;4.97;;;17.70;72.50;;;;;;4976917;28;20034;-70
2021/05/23 02:30:30;;;;;;;9.90;4.68;;;17.70;72.50;;;;;;4993548;28;20034;-68
2021/05/23 02:32:56;;;;;;;10.13;5.13;;;17.70;72.60;;;;;;4976427;28;20038;-66
2021/05/23 02:35:24;;;;;;;9.52;4.78;;;17.70;72.60;;;;;;4993451;28;20030;-67
2021/05/23 02:37:50;;;;;;;10.68;4.78;;;17.60;72.50;;;;;;4976456;28;20453;-68
2021/05/23 02:40:19;;;;;;;10.52;4.20;;;17.60;72.60;;;;;;4993392;28;20501;-68
2021/05/23 02:42:46;;;;;;;9.75;4.70;;;17.60;72.50;;;;;;4975773;28;20037;-69
2021/05/23 02:45:13;;;;;;;9.10;4.65;;;17.60;72.50;;;;;;4975126;28;20033;-69
2021/05/23 02:47:39;;;;;;;9.25;4.43;;;17.60;72.50;;;;;;4976176;28;20405;-67
2021/05/23 02:50:08;;;;;;;10.30;4.43;;;17.60;72.60;;;;;;4993489;28;20034;-69
2021/05/23 02:52:34;;;;;;;8.90;3.90;;;17.60;72.60;;;;;;4975977;28;20037;-68
2021/05/23 02:55:00;;;;;;;8.98;4.07;;;17.60;72.60;;;;;;4991656;28;20478;-70
2021/05/23 02:57:25;;;;;;;9.43;3.97;;;17.60;72.60;;;;;;4993501;28;20457;-68
2021/05/23 02:59:51;;;;;;;7.28;3.72;;;17.60;72.50;;;;;;4992873;28;20061;-68
2021/05/23 03:02:16;;;;;;;8.38;4.07;;;17.60;72.60;;;;;;4993658;28;20026;-69
2021/05/23 03:04:42;;;;;;;7.75;3.63;;;17.60;72.50;;;;;;4992513;28;20121;-68
2021/05/23 03:07:07;;;;;;;7.03;3.55;;;17.60;72.60;;;;;;4993238;28;20050;-69
2021/05/23 03:09:33;;;;;;;7.00;3.58;;;17.60;72.70;;;;;;4993142;28;20093;-68
2021/05/23 03:11:59;;;;;;;7.63;3.80;;;17.60;72.60;;;;;;4992853;28;20042;-70
2021/05/23 03:14:25;;;;;;;8.73;3.55;;;17.60;72.70;;;;;;4992557;28;20030;-69
2021/05/23 03:16:51;;;;;;;6.80;3.65;;;17.60;72.70;;;;;;4992673;28;20113;-68
2021/05/23 03:19:16;;;;;;;8.63;3.42;;;17.50;72.60;;;;;;4992938;28;20027;-68
2021/05/23 03:21:42;;;;;;;8.75;3.40;;;17.60;72.70;;;;;;4993014;28;20109;-68
2021/05/23 03:24:08;;;;;;;6.03;2.92;;;17.50;72.60;;;;;;4992647;28;20493;-68
2021/05/23 03:26:34;;;;;;;7.55;4.00;;;17.50;72.70;;;;;;4975643;28;20413;-68
2021/05/23 03:28:59;;;;;;;7.28;3.47;;;17.50;72.70;;;;;;4992420;28;20033;-69
2021/05/23 03:31:25;;;;;;;8.13;3.53;;;17.50;72.70;;;;;;4992121;28;20042;-68
2021/05/23 03:33:51;;;;;;;7.05;2.80;;;17.50;72.60;;;;;;4992571;28;20620;-69
2021/05/23 03:36:17;;;;;;;6.00;3.10;;;17.50;72.70;;;;;;4993017;28;20132;-68
2021/05/23 03:38:46;;;;;;;6.95;3.00;;;17.50;72.70;;;;;;4992460;28;20537;-68
2021/05/23 03:41:13;;;;;;;6.57;2.90;;;17.50;72.70;;;;;;4974884;28;20037;-69
2021/05/23 03:43:39;;;;;;;6.88;2.97;;;17.50;72.70;;;;;;4992017;28;20446;-69
2021/05/23 03:46:05;;;;;;;8.13;3.28;;;17.50;72.70;;;;;;4992502;28;20022;-69
2021/05/23 03:48:31;;;;;;;7.68;3.20;;;17.40;72.70;;;;;;4992166;28;20100;-70
2021/05/23 03:50:57;;;;;;;6.82;2.92;;;17.50;72.60;;;;;;4992451;28;20031;-67
2021/05/23 03:53:22;;;;;;;7.00;3.22;;;17.50;72.70;;;;;;4992299;28;20035;-66
2021/05/23 03:55:49;;;;;;;7.65;3.08;;;17.50;72.70;;;;;;4974784;28;20089;-68
2021/05/23 03:58:16;;;;;;;7.30;3.10;;;17.40;72.70;;;;;;4992090;28;20030;-68
2021/05/23 04:00:41;;;;;;;7.90;2.97;;;17.50;72.80;;;;;;4973763;28;20041;-69
2021/05/23 04:03:07;;;;;;;9.25;3.30;;;17.50;73.00;;;;;;4992263;28;20031;-69
2021/05/23 04:05:33;;;;;;;8.25;3.13;;;17.50;73.20;;;;;;4973178;28;20483;-68
2021/05/23 04:07:59;;;;;;;7.68;2.92;;;17.50;72.90;;;;;;4974365;28;20023;-68
2021/05/23 04:10:30;;;;;;;7.80;2.83;;;17.50;72.90;;;;;;4991975;28;20417;-68
2021/05/23 04:12:57;;;;;;;7.63;3.00;;;17.40;72.80;;;;;;4974436;28;20482;-70
2021/05/23 04:15:24;;;;;;;7.65;2.90;;;17.40;72.80;;;;;;4974256;28;20065;-69
2021/05/23 04:17:49;;;;;;;8.43;2.42;;;17.40;72.70;;;;;;4991794;28;20117;-68
2021/05/23 04:20:19;;;;;;;7.30;2.72;;;17.40;72.90;;;;;;4974235;28;20121;-69
2021/05/23 04:22:45;;;;;;;9.00;2.78;;;17.40;72.80;;;;;;4991346;28;20065;-69
2021/05/23 04:25:13;;;;;;;6.53;2.92;;;17.40;72.80;;;;;;4987454;28;20547;-68
2021/05/23 04:27:43;;;;;;;7.50;2.95;;;17.40;72.80;;;;;;4962217;28;20037;-68
2021/05/23 04:30:10;;;;;;;7.70;2.58;;;17.40;72.80;;;;;;4991345;28;20031;-71
2021/05/23 04:32:36;;;;;;;9.85;2.80;;;17.40;72.80;;;;;;4974734;28;20038;-69
2021/05/23 04:35:03;;;;;;;5.97;2.58;;;17.40;72.80;;;;;;4990473;28;20028;-68
2021/05/23 04:37:28;;;;;;;6.05;2.50;;;17.40;72.80;;;;;;4979986;28;20490;-68
2021/05/23 04:39:54;;;;;;;7.18;2.78;;;17.40;72.90;;;;;;4997886;28;20112;-68
2021/05/23 04:42:19;;;;;;;6.03;2.60;;;17.40;72.90;;;;;;5001537;28;20081;-69
2021/05/23 04:44:45;;;;;;;8.02;2.83;;;17.40;72.90;;;;;;4994183;28;20027;-69
2021/05/23 04:47:11;;;;;;;9.43;2.63;;;17.40;72.80;;;;;;4974098;28;20029;-68
2021/05/23 04:49:39;;;;;;;6.60;2.58;;;17.40;72.80;;;;;;4974282;28;20106;-68
2021/05/23 04:52:09;;;;;;;4.85;2.58;;;17.40;72.80;;;;;;4991654;28;20031;-68
2021/05/23 04:54:36;;;;;;;6.70;2.40;;;17.40;72.80;;;;;;4974345;28;20026;-68
2021/05/23 04:57:02;;;;;;;6.45;2.60;;;17.40;72.70;;;;;;4973988;28;20112;-67
2021/05/23 04:59:28;;;;;;;6.10;2.70;;;17.40;72.60;;;;;;4973720;28;20033;-68
2021/05/23 05:01:53;;;;;;;6.55;2.50;;;17.40;72.60;;;;;;4991629;28;20026;-68
2021/05/23 05:04:19;;;;;;;8.20;2.90;;;17.40;72.50;;;;;;4990955;28;20054;-68
2021/05/23 05:06:44;;;;;;;6.65;2.30;;;17.40;72.50;;;;;;4991939;28;20089;-66
2021/05/23 05:09:10;;;;;;;6.15;2.40;;;17.40;72.50;;;;;;4991566;28;20033;-68
2021/05/23 05:11:36;;;;;;;5.00;2.30;;;17.40;72.40;;;;;;4991277;28;20057;-68
2021/05/23 05:14:02;;;;;;;6.70;2.40;;;17.40;72.40;;;;;;4991657;28;20035;-68
2021/05/23 05:16:27;;;;;;;5.95;2.33;;;17.40;72.50;;;;;;4993566;28;20112;-70
2021/05/23 05:18:53;;;;;;;5.15;2.33;;;17.40;72.30;;;;;;4991067;28;20072;-68
2021/05/23 05:21:19;;;;;;;4.25;2.35;;;17.40;72.30;;;;;;4977506;28;20121;-68
2021/05/23 05:23:45;;;;;;;5.93;2.45;;;17.40;72.20;;;;;;5002353;28;20054;-68
2021/05/23 05:26:10;;;;;;;6.63;2.50;;;17.40;72.20;;;;;;5006464;28;20087;-70
2021/05/23 05:28:36;;;;;;;13.70;8.27;;;17.50;72.30;;;;;;4991436;28;20037;-68
2021/05/23 05:31:02;;;;;;;12.98;7.00;;;17.50;72.40;;;;;;4973853;28;20045;-67
2021/05/23 05:33:27;;;;;;;8.35;4.18;;;17.50;72.50;;;;;;4994778;28;20448;-67
2021/05/23 05:35:53;;;;;;;6.50;3.25;;;17.50;72.40;;;;;;4994915;28;20072;-68
2021/05/23 05:38:18;;;;;;;9.00;2.90;;;17.50;72.30;;;;;;4976998;28;20030;-69
2021/05/23 05:40:44;;;;;;;6.80;2.80;;;17.60;72.20;;;;;;4977925;28;20750;-67
2021/05/23 05:43:11;;;;;;;8.57;2.88;;;17.60;72.50;;;;;;4994734;28;20037;-68
2021/05/23 05:45:37;;;;;;;6.60;3.15;;;17.60;72.10;;;;;;4995370;28;20026;-68
2021/05/23 05:48:03;;;;;;;21.45;11.68;;;17.70;71.80;;;;;;4998837;28;20401;-67
2021/05/23 05:50:29;;;;;;;12.60;6.38;;;17.70;71.70;;;;;;4997422;28;20022;-68
2021/05/23 05:52:54;;;;;;;10.05;4.40;;;17.70;71.50;;;;;;4974763;28;20216;-67
2021/05/23 05:55:20;;;;;;;7.70;4.35;;;17.80;71.70;;;;;;4993994;28;20118;-67
2021/05/23 05:57:45;;;;;;;9.35;5.72;;;17.80;71.80;;;;;;4994597;28;20031;-67
2021/05/23 06:00:11;;;;;;;7.55;4.32;;;17.80;71.70;;;;;;4994071;28;20049;-67
2021/05/23 06:02:37;;;;;;;6.93;3.50;;;17.90;72.00;;;;;;4994577;28;20068;-66
2021/05/23 06:05:03;;;;;;;7.95;3.22;;;17.90;71.70;;;;;;4993940;28;20052;-66
2021/05/23 06:07:29;;;;;;;17.23;3.67;;;17.90;71.30;;;;;;4994193;28;20073;-66
2021/05/23 06:09:54;;;;;;;6.32;3.05;;;17.90;71.10;;;;;;4982686;28;20022;-67
2021/05/23 06:12:20;;;;;;;8.95;3.40;;;18.00;71.10;;;;;;4992623;28;20026;-68
2021/05/23 06:14:46;;;;;;;14.93;4.65;;;18.00;71.20;;;;;;4977383;28;20041;-70
2021/05/23 06:17:11;;;;;;;14.82;4.35;;;18.00;71.70;;;;;;4975076;28;20089;-69
2021/05/23 06:19:37;;;;;;;13.77;4.32;;;18.00;70.70;;;;;;4986651;28;20023;-66
2021/05/23 06:22:03;;;;;;;14.05;4.32;;;18.00;70.00;;;;;;4994000;28;20026;-68
2021/05/23 06:24:29;;;;;;;14.48;3.90;;;17.90;70.20;;;;;;4992856;28;20030;-68
2021/05/23 06:26:54;;;;;;;9.05;3.35;;;17.90;69.90;;;;;;4993117;28;20021;-68
2021/05/23 06:29:20;;;;;;;12.20;3.80;;;17.90;69.90;;;;;;4993276;28;20022;-67
2021/05/23 06:31:45;;;;;;;12.55;3.35;;;17.90;69.80;;;;;;4989575;28;20396;-67
2021/05/23 06:34:12;;;;;;;8.02;3.67;;;17.90;69.10;;;;;;5011556;28;20034;-68
2021/05/23 06:36:38;;;;;;;13.65;3.47;;;18.00;68.80;;;;;;5011965;28;20497;-67
2021/05/23 06:39:05;;;;;;;9.63;3.25;;;18.00;68.70;;;;;;4994039;28;20017;-68
2021/05/23 06:41:31;;;;;;;7.07;3.00;;;18.00;68.90;;;;;;5011339;28;20025;-68
2021/05/23 06:43:57;;;;;;;6.63;3.53;;;18.00;68.20;;;;;;5011595;28;20022;-68
2021/05/23 06:46:22;;;;;;;12.25;3.92;;;18.00;67.50;;;;;;4975625;28;20117;-68
2021/05/23 06:48:48;;;;;;;11.07;3.40;;;18.00;67.80;;;;;;4992727;28;20073;-69
2021/05/23 06:51:14;;;;;;;11.25;3.20;;;18.00;68.10;;;;;;4975200;28;20038;-68
2021/05/23 06:53:40;;;;;;;6.75;2.67;;;18.10;68.10;;;;;;4993309;28;20042;-68
2021/05/23 06:56:06;;;;;;;7.93;2.72;;;18.10;68.20;;;;;;5001405;28;20110;-69
2021/05/23 06:58:32;;;;;;;5.80;2.42;;;18.10;68.70;;;;;;4973960;28;20037;-69
2021/05/23 07:00:58;;;;;;;7.38;2.55;;;18.20;68.80;;;;;;4975027;28;20030;-67
2021/05/23 07:03:25;;;;;;;9.52;2.65;;;18.30;69.00;;;;;;4993382;28;20030;-67
2021/05/23 07:05:50;;;;;;;10.15;2.53;;;18.30;69.00;;;;;;4973483;28;20014;-68
2021/05/23 07:08:18;;;;;;;8.05;2.50;;;18.40;69.10;;;;;;4992236;28;20536;-68
2021/05/23 07:10:43;;;;;;;6.22;2.53;;;18.40;69.10;;;;;;4992579;28;20033;-67
2021/05/23 07:13:09;;;;;;;9.57;2.80;;;18.40;69.00;;;;;;4993319;28;20030;-69
2021/05/23 07:15:34;;;;;;;10.77;3.10;;;18.40;69.00;;;;;;4974802;28;20072;-67
2021/05/23 07:18:00;;;;;;;19.67;17.85;;;18.40;69.10;;;;;;4989692;28;20033;-68
2021/05/23 07:20:26;;;;;;;23.40;21.10;;;18.50;69.20;;;;;;4992619;28;20026;-68
2021/05/23 07:22:52;;;;;;;14.73;10.15;;;18.50;69.10;;;;;;4994712;28;20451;-68
2021/05/23 07:25:17;;;;;;;11.20;7.20;;;18.50;69.20;;;;;;5007348;28;20022;-67
2021/05/23 07:27:43;;;;;;;13.10;6.40;;;18.60;69.00;;;;;;5011315;28;20038;-68
2021/05/23 07:30:09;;;;;;;11.70;5.97;;;18.80;68.60;;;;;;4993064;28;20027;-69
2021/05/23 07:32:34;;;;;;;14.95;5.68;;;18.90;67.80;;;;;;4975644;28;20033;-68
2021/05/23 07:35:00;;;;;;;9.57;5.70;;;18.90;67.50;;;;;;4975394;28;20050;-67
2021/05/23 07:37:26;;;;;;;10.38;5.10;;;18.90;67.60;;;;;;4992110;28;20116;-66
2021/05/23 07:39:51;;;;;;;16.95;5.28;;;18.90;67.90;;;;;;4972811;28;20391;-67
2021/05/23 07:42:17;;;;;;;17.58;6.43;;;18.90;68.90;;;;;;4975407;28;20025;-69
2021/05/23 07:44:42;;;;;;;22.17;7.13;;;18.90;68.40;;;;;;4974831;28;20038;-67
2021/05/23 07:47:08;;;;;;;14.98;7.47;;;18.90;68.40;;;;;;4991947;28;20027;-65
2021/05/23 07:49:40;;;;;;;18.67;7.65;;;18.90;68.50;;;;;;4991306;28;20034;-67
2021/05/23 07:52:10;;;;;;;21.52;7.85;;;18.90;68.50;;;;;;4990981;28;20034;-65
2021/05/23 07:54:35;;;;;;;24.45;8.77;;;18.80;68.90;;;;;;4993566;28;20057;-75
2021/05/23 07:57:02;;;;;;;28.48;8.70;;;18.80;70.70;;;;;;4994791;28;20478;-72
2021/05/23 07:59:28;;;;;;;21.35;7.25;;;18.80;71.40;;;;;;4982313;28;20026;-74
2021/05/23 08:01:54;;;;;;;19.55;7.43;;;18.80;71.00;;;;;;4982980;28;20021;-73
2021/05/23 08:04:20;;;;;;;21.70;7.35;;;18.80;71.10;;;;;;4978594;28;20376;-75
2021/05/23 08:06:45;;;;;;;16.27;6.95;;;18.80;71.00;;;;;;4975296;28;20090;-72
2021/05/23 08:09:11;;;;;;;14.82;6.45;;;18.80;72.10;;;;;;4974317;28;20041;-73
2021/05/23 08:11:36;;;;;;;13.85;6.57;;;18.80;71.40;;;;;;4991602;28;20034;-73
2021/05/23 08:14:02;;;;;;;15.85;6.20;;;18.90;70.80;;;;;;4975155;28;20030;-74
2021/05/23 08:16:28;;;;;;;11.68;5.65;;;18.90;70.70;;;;;;4974125;28;20536;-73
2021/05/23 08:18:53;;;;;;;13.77;6.07;;;18.90;71.00;;;;;;4973013;28;20022;-73
2021/05/23 08:21:19;;;;;;;12.98;5.25;;;18.90;70.90;;;;;;4990844;28;20403;-73
2021/05/23 08:23:45;;;;;;;16.33;6.38;;;19.00;70.40;;;;;;4991192;28;20026;-73
2021/05/23 08:26:11;;;;;;;13.98;6.05;;;19.10;70.10;;;;;;4973862;28;20018;-71
2021/05/23 08:28:36;;;;;;;11.55;5.95;;;19.10;70.00;;;;;;4990760;28;20038;-74
2021/05/23 08:31:02;;;;;;;20.38;6.03;;;19.20;69.80;;;;;;4985062;28;20026;-67
2021/05/23 08:33:28;;;;;;;138.27;93.95;;;19.20;69.40;;;;;;4972871;28;20031;-66
2021/05/23 08:35:53;;;;;;;44.55;26.65;;;19.20;69.30;;;;;;4992815;28;20042;-67
2021/05/23 08:38:19;;;;;;;36.20;13.60;;;19.30;68.70;;;;;;5009711;28;20532;-65
2021/05/23 08:40:45;;;;;;;26.33;12.55;;;19.30;68.80;;;;;;4994570;28;20058;-66
2021/05/23 08:43:12;;;;;;;33.03;11.73;;;19.30;68.30;;;;;;4991313;28;20536;-67
2021/05/23 08:45:37;;;;;;;26.00;11.10;;;19.40;68.40;;;;;;4991205;28;20077;-65
2021/05/23 08:48:04;;;;;;;23.88;10.75;;;19.40;68.40;;;;;;4991115;28;20027;-66
2021/05/23 08:50:30;;;;;;;28.35;10.15;;;19.30;68.10;;;;;;4990430;28;20041;-66
2021/05/23 08:53:01;;;;;;;30.92;10.98;;;19.30;68.20;;;;;;4975402;28;20703;-67
2021/05/23 08:55:28;;;;;;;26.63;8.65;;;19.30;68.10;;;;;;4995456;28;20033;-65
2021/05/23 08:57:55;;;;;;;27.02;9.52;;;19.30;68.10;;;;;;4978124;28;20490;-65
2021/05/23 09:00:21;;;;;;;25.73;9.25;;;19.20;68.10;;;;;;4995339;28;20045;-65
2021/05/23 09:02:55;;;;;;;22.83;8.85;;;19.20;68.20;;;;;;4977508;28;20046;-66
2021/05/23 09:05:37;;;;;;;19.38;6.90;;;19.30;68.20;;;;;;4995132;28;20106;-68
2021/05/23 09:08:09;;;;;;;17.95;8.52;;;19.20;67.40;;;;;;4995304;28;20033;-66
2021/05/23 09:10:36;;;;;;;31.25;8.05;;;19.20;67.80;;;;;;4975929;28;20419;-66
2021/05/23 09:13:02;;;;;;;21.33;7.10;;;19.20;68.00;;;;;;4975059;28;20034;-66
2021/05/23 09:15:28;;;;;;;30.35;13.40;;;19.10;67.90;;;;;;4974230;28;20037;-66
2021/05/23 09:18:12;;;;;;;33.63;12.18;;;19.10;68.00;;;;;;4992523;28;20022;-66
2021/05/23 09:20:40;;;;;;;30.35;9.25;;;19.10;68.00;;;;;;4992101;28;20030;-67
2021/05/23 09:23:25;;;;;;;31.38;8.82;;;19.10;68.20;;;;;;4973348;28;20019;-69
2021/05/23 09:25:51;;;;;;;40.72;10.00;;;19.10;68.10;;;;;;4992314;28;20030;-66
2021/05/23 09:28:28;;;;;;;41.95;9.50;;;19.00;68.10;;;;;;4991943;28;20021;-66
2021/05/23 09:30:54;;;;;;;39.55;9.52;;;19.00;68.00;;;;;;4976895;28;20513;-66
2021/05/23 09:33:20;;;;;;;36.97;8.85;;;19.00;68.10;;;;;;4992829;28;20030;-65
2021/05/23 09:35:46;;;;;;;43.80;9.63;;;19.00;68.70;;;;;;4994522;28;20440;-67
2021/05/23 09:38:14;;;;;;;43.90;8.68;;;18.90;69.60;;;;;;4976810;28;20038;-67
2021/05/23 09:40:44;;;;;;;46.97;8.70;;;18.90;71.80;;;;;;4976156;28;20046;-71
2021/05/23 09:43:18;;;;;;;35.70;8.82;;;18.90;71.40;;;;;;4964986;28;20486;-66
2021/05/23 09:45:50;;;;;;;32.05;7.60;;;18.90;71.20;;;;;;4974957;28;20477;-66
2021/05/23 09:48:28;;;;;;;58.67;24.10;;;18.90;71.30;;;;;;4993882;28;20085;-66
2021/05/23 09:50:55;;;;;;;46.00;11.05;;;18.90;71.40;;;;;;4978441;28;20529;-63
2021/05/23 09:53:28;;;;;;;46.22;11.98;;;18.90;71.10;;;;;;4976855;28;20329;-67
2021/05/23 09:55:55;;;;;;;51.78;10.98;;;18.90;70.80;;;;;;4976757;28;20030;-67
2021/05/23 09:58:33;;;;;;;37.60;10.43;;;19.00;70.40;;;;;;4998493;28;20026;-66
2021/05/23 10:00:59;;;;;;;51.92;10.57;;;19.10;70.00;;;;;;4993718;28;20387;-65
2021/05/23 10:03:30;;;;;;;53.40;10.63;;;19.20;69.70;;;;;;4974657;28;20034;-66
2021/05/23 10:05:55;;;;;;;48.63;10.45;;;19.20;69.60;;;;;;5012151;28;20101;-66
2021/05/23 10:08:21;;;;;;;47.72;10.27;;;19.20;69.40;;;;;;5003255;28;20455;-66
2021/05/23 10:10:48;;;;;;;45.63;10.23;;;19.20;69.40;;;;;;5011927;28;20028;-66
2021/05/23 10:13:14;;;;;;;39.70;8.80;;;19.20;68.80;;;;;;5000141;28;20036;-65
2021/05/23 10:15:40;;;;;;;39.90;9.30;;;19.20;68.70;;;;;;4993415;28;20077;-65
2021/05/23 10:18:09;;;;;;;50.20;11.57;;;19.20;68.50;;;;;;4995253;28;20030;-65
2021/05/23 10:20:36;;;;;;;66.25;20.75;;;19.20;68.90;;;;;;4975299;28;20064;-66
2021/05/23 10:23:16;;;;;;;90.18;16.67;;;19.10;69.90;;;;;;4970927;28;20045;-67
2021/05/23 10:25:48;;;;;;;70.90;14.98;;;19.20;71.20;;;;;;4992263;28;20022;-65
2021/05/23 10:28:15;;;;;;;60.03;13.80;;;19.20;70.30;;;;;;4994433;28;20033;-68
2021/05/23 10:30:55;;;;;;;74.20;18.15;;;19.20;69.90;;;;;;4990845;28;20030;-63
2021/05/23 10:33:22;;;;;;;55.40;12.98;;;19.30;70.10;;;;;;4990680;28;20122;-62
2021/05/23 10:35:50;;;;;;;65.60;14.82;;;19.40;69.60;;;;;;4992850;28;20026;-65
2021/05/23 10:38:21;;;;;;;56.13;13.13;;;19.50;69.60;;;;;;4992045;28;20038;-67
2021/05/23 10:41:05;;;;;;;81.68;21.38;;;19.50;68.70;;;;;;4976134;28;20026;-67
2021/05/23 10:43:33;;;;;;;80.45;25.65;;;19.40;68.90;;;;;;4996010;28;20024;-65
2021/05/23 10:46:07;;;;;;;75.47;18.88;;;19.40;69.10;;;;;;4993242;28;20056;-68
2021/05/23 10:48:32;;;;;;;85.13;22.88;;;19.40;68.70;;;;;;4969913;28;20022;-70
2021/05/23 10:51:09;;;;;;;55.53;19.27;;;19.30;69.30;;;;;;4987345;28;20030;-69
2021/05/23 10:53:34;;;;;;;79.63;23.55;;;19.30;69.40;;;;;;4993637;28;20108;-70
2021/05/23 10:56:00;;;;;;;76.15;22.55;;;19.40;69.60;;;;;;4996859;28;20490;-65
2021/05/23 10:58:27;;;;;;;68.80;21.02;;;19.50;69.20;;;;;;4995813;28;20038;-67
2021/05/23 11:00:55;;;;;;;90.95;23.75;;;19.80;68.70;;;;;;4992697;28;20022;-66
2021/05/23 11:03:23;;;;;;;91.22;20.58;;;20.00;68.10;;;;;;4992817;28;20022;-68
2021/05/23 11:06:07;;;;;;;61.00;20.45;;;20.30;67.20;;;;;;4992678;28;20085;-65
2021/05/23 11:08:35;;;;;;;68.00;17.77;;;20.30;66.30;;;;;;4992115;28;20371;-66
2021/05/23 11:11:01;;;;;;;76.50;19.95;;;20.40;66.00;;;;;;4974942;28;20077;-65
2021/05/23 11:13:29;;;;;;;67.75;17.05;;;20.60;65.80;;;;;;4993499;28;20093;-64
2021/05/23 11:15:55;;;;;;;63.85;18.42;;;20.70;65.10;;;;;;4990445;28;20030;-68
2021/05/23 11:18:27;;;;;;;57.65;18.70;;;20.60;64.70;;;;;;4974549;28;20034;-66
2021/05/23 11:20:56;;;;;;;55.38;16.25;;;20.50;64.90;;;;;;4992093;28;20098;-65
2021/05/23 11:23:22;;;;;;;52.08;15.00;;;20.40;64.80;;;;;;4993121;28;20061;-66
2021/05/23 11:25:49;;;;;;;37.80;12.05;;;20.40;65.30;;;;;;4976313;28;20511;-66
2021/05/23 11:28:20;;;;;;;47.58;14.82;;;20.30;64.80;;;;;;4974927;28;20030;-66
2021/05/23 11:30:47;;;;;;;58.03;15.23;;;20.30;65.60;;;;;;4976557;28;20117;-65
2021/05/23 11:33:13;;;;;;;41.30;13.63;;;20.20;65.50;;;;;;4986422;28;20036;-69
2021/05/23 11:35:42;;;;;;;40.88;14.25;;;20.20;65.80;;;;;;5009929;28;20029;-68
2021/05/23 11:38:08;;;;;;;47.72;14.27;;;20.20;66.00;;;;;;4976682;28;20048;-66
2021/05/23 11:40:36;;;;;;;53.90;14.93;;;20.20;65.80;;;;;;4987159;28;20532;-64
2021/05/23 11:43:10;;;;;;;51.10;16.17;;;20.30;66.00;;;;;;4994118;28;20018;-63
2021/05/23 11:45:36;;;;;;;42.17;14.73;;;20.30;65.90;;;;;;4988117;28;20037;-69
2021/05/23 11:48:08;;;;;;;45.80;12.82;;;20.40;65.70;;;;;;5094631;27;20895;-63
2021/05/23 11:50:35;;;;;;;51.05;13.68;;;20.60;64.80;;;;;;5098645;28;20032;-63
2021/05/23 11:53:01;;;;;;;48.33;14.45;;;20.60;64.60;;;;;;5088233;28;20036;-64
2021/05/23 11:55:29;;;;;;;47.03;13.95;;;20.60;64.60;;;;;;5088170;28;20101;-63
2021/05/23 11:58:05;;;;;;;42.92;14.63;;;20.60;64.60;;;;;;5087438;28;20046;-63
2021/05/23 12:00:31;;;;;;;42.03;11.50;;;20.60;64.80;;;;;;5086176;28;20066;-64
2021/05/23 12:02:57;;;;;;;35.58;11.35;;;20.60;64.50;;;;;;5087668;28;20043;-64
2021/05/23 12:05:40;;;;;;;34.63;11.63;;;20.60;64.50;;;;;;5088122;28;20504;-65
2021/05/23 12:08:17;;;;;;;32.88;11.75;;;20.60;64.40;;;;;;5073594;28;20032;-64
2021/05/23 12:10:43;;;;;;;31.52;11.38;;;20.50;64.70;;;;;;5096403;28;20025;-66
2021/05/23 12:13:08;;;;;;;37.45;11.15;;;20.60;64.60;;;;;;5088532;28;20022;-66
2021/05/23 12:15:34;;;;;;;32.75;10.25;;;20.70;64.60;;;;;;5087765;28;20028;-64
2021/05/23 12:18:00;;;;;;;39.47;10.63;;;20.70;64.50;;;;;;5087959;28;20029;-64
2021/05/23 12:20:26;;;;;;;29.75;9.68;;;20.70;64.50;;;;;;5087819;28;20031;-65
2021/05/23 12:22:53;;;;;;;25.48;10.27;;;20.70;64.20;;;;;;5086870;28;20489;-64
2021/05/23 12:25:21;;;;;;;26.45;8.73;;;20.70;64.00;;;;;;5088035;28;20027;-63
2021/05/23 12:27:53;;;;;;;21.98;7.65;;;20.70;63.70;;;;;;5086898;28;20024;-65
2021/05/23 12:30:20;;;;;;;18.52;7.03;;;20.60;63.60;;;;;;5086750;28;20028;-65
2021/05/23 12:32:58;;;;;;;20.17;6.43;;;20.60;63.50;;;;;;5086111;28;20020;-65
2021/05/23 12:35:25;;;;;;;26.50;9.40;;;20.60;62.90;;;;;;5087360;28;20036;-65
2021/05/23 12:37:56;;;;;;;19.50;7.80;;;20.60;63.50;;;;;;5087782;28;20097;-64
2021/05/23 12:40:26;;;;;;;24.05;6.95;;;20.70;63.50;;;;;;5087526;28;20165;-67